createdAt,value
2022-10-02T00:01:27.315Z,5.66
2022-10-02T00:02:42.333Z,5.72
2022-10-02T00:03:45.685Z,7.92
2022-10-02T00:05:03.490Z,8.13
2022-10-02T00:06:09.543Z,5.70
2022-10-02T00:07:14.089Z,5.59
2022-10-02T00:08:23.879Z,6.02
2022-10-02T00:10:52.516Z,6.90
2022-10-02T00:11:58.190Z,6.81
2022-10-02T00:13:03.894Z,6.19
2022-10-02T00:14:09.596Z,6.27
2022-10-02T00:15:18.288Z,7.02
2022-10-02T00:16:27.239Z,6.04
2022-10-02T00:17:35.865Z,5.31
2022-10-02T00:18:39.857Z,13.76
2022-10-02T00:19:41.785Z,5.49
2022-10-02T00:21:04.248Z,7.77
2022-10-02T00:22:30.247Z,6.85
2022-10-02T00:23:41.966Z,6.19
2022-10-02T00:25:00.149Z,6.24
2022-10-02T00:26:21.405Z,4.47
2022-10-02T00:27:48.569Z,5.09
2022-10-02T00:29:03.696Z,7.55
2022-10-02T00:30:10.056Z,6.52
2022-10-02T00:31:24.917Z,5.35
2022-10-02T00:32:42.216Z,5.09
2022-10-02T00:34:04.763Z,4.65
2022-10-02T00:35:27.701Z,5.72
2022-10-02T00:36:45.576Z,6.80
2022-10-02T00:37:51.243Z,5.88
2022-10-02T00:39:17.855Z,5.40
2022-10-02T00:40:39.159Z,5.39
2022-10-02T00:42:11.204Z,3.67
2022-10-02T00:44:54.510Z,4.87
2022-10-02T00:46:06.324Z,3.62
2022-10-02T00:47:41.495Z,5.44
2022-10-02T00:48:50.359Z,4.72
2022-10-02T00:50:19.883Z,4.91
2022-10-02T00:51:28.583Z,3.09
2022-10-02T00:52:58.428Z,4.26
2022-10-02T00:54:22.469Z,3.07
2022-10-02T00:55:43.771Z,4.73
2022-10-02T00:57:07.937Z,5.08
2022-10-02T00:58:35.116Z,3.69
2022-10-02T00:59:46.810Z,4.36
2022-10-02T01:01:09.550Z,4.52
2022-10-02T01:03:45.326Z,3.37
2022-10-02T01:04:47.258Z,3.03
2022-10-02T01:05:49.833Z,4.27
2022-10-02T01:06:52.021Z,4.43
2022-10-02T01:07:55.302Z,3.50
2022-10-02T01:08:57.551Z,3.74
2022-10-02T01:09:59.452Z,8.13
2022-10-02T01:11:03.212Z,3.94
2022-10-02T01:12:06.204Z,4.76
2022-10-02T01:13:08.661Z,6.82
2022-10-02T01:14:11.844Z,4.02
2022-10-02T01:15:17.413Z,4.33
2022-10-02T01:16:19.714Z,3.57
2022-10-02T01:17:31.827Z,4.91
2022-10-02T01:18:33.756Z,4.51
2022-10-02T01:19:39.280Z,4.02
2022-10-02T01:20:45.147Z,4.69
2022-10-02T01:21:50.441Z,3.38
2022-10-02T01:23:08.562Z,5.34
2022-10-02T01:24:26.528Z,4.26
2022-10-02T01:25:29.017Z,4.45
2022-10-02T01:26:31.570Z,3.67
2022-10-02T01:27:38.935Z,3.41
2022-10-02T01:28:39.484Z,4.18
2022-10-02T01:29:45.346Z,5.01
2022-10-02T01:30:51.267Z,4.71
2022-10-02T01:31:53.943Z,3.78
2022-10-02T01:32:59.081Z,3.45
2022-10-02T01:34:01.939Z,4.00
2022-10-02T01:35:05.431Z,3.59
2022-10-02T01:36:11.482Z,5.65
2022-10-02T01:37:14.096Z,4.12
2022-10-02T01:38:19.762Z,5.01
2022-10-02T01:39:22.290Z,4.04
2022-10-02T01:40:33.292Z,3.97
2022-10-02T01:41:38.996Z,3.93
2022-10-02T01:42:41.155Z,3.62
2022-10-02T01:43:52.645Z,6.47
2022-10-02T01:44:55.228Z,4.47
2022-10-02T01:46:19.512Z,5.46
2022-10-02T01:47:31.196Z,3.89
2022-10-02T01:49:00.025Z,4.62
2022-10-02T01:50:05.835Z,5.09
2022-10-02T01:51:38.933Z,4.38
2022-10-02T01:54:27.977Z,3.02
2022-10-02T01:55:36.663Z,5.21
2022-10-02T01:56:59.724Z,4.35
2022-10-02T01:58:22.053Z,2.96
2022-10-02T01:59:49.115Z,4.99
2022-10-02T02:01:04.053Z,5.40
2022-10-02T02:02:24.866Z,6.19
2022-10-02T02:03:30.848Z,5.62
2022-10-02T02:04:48.425Z,5.54
2022-10-02T02:05:54.102Z,5.77
2022-10-02T02:07:05.856Z,4.97
2022-10-02T02:08:17.486Z,4.01
2022-10-02T02:09:32.277Z,4.73
2022-10-02T02:10:38.159Z,2.77
2022-10-02T02:11:43.837Z,5.71
2022-10-02T02:13:01.649Z,4.93
2022-10-02T02:14:07.355Z,7.20
2022-10-02T02:15:22.021Z,4.86
2022-10-02T02:16:40.153Z,4.72
2022-10-02T02:18:04.243Z,4.92
2022-10-02T02:19:39.172Z,3.94
2022-10-02T02:20:47.550Z,3.94
2022-10-02T02:21:59.144Z,3.92
2022-10-02T02:23:04.814Z,7.47
2022-10-02T02:24:10.499Z,3.56
2022-10-02T02:25:19.294Z,3.66
2022-10-02T02:26:24.617Z,3.32
2022-10-02T02:27:30.339Z,5.09
2022-10-02T02:28:34.402Z,3.23
2022-10-02T02:29:38.112Z,5.22
2022-10-02T02:30:43.978Z,3.74
2022-10-02T02:31:49.788Z,3.84
2022-10-02T02:32:55.676Z,5.08
2022-10-02T02:34:04.126Z,4.09
2022-10-02T02:35:12.616Z,3.54
2022-10-02T02:36:18.423Z,7.08
2022-10-02T02:37:24.148Z,4.34
2022-10-02T02:38:35.153Z,4.26
2022-10-02T02:39:40.866Z,4.17
2022-10-02T02:40:46.182Z,5.66
2022-10-02T02:44:17.267Z,6.56
2022-10-02T02:46:26.706Z,4.65
2022-10-02T02:48:49.112Z,4.46
2022-10-02T02:51:22.670Z,3.72
2022-10-02T02:52:31.652Z,4.27
2022-10-02T02:53:52.871Z,5.89
2022-10-02T02:55:01.504Z,6.92
2022-10-02T02:56:07.221Z,4.31
2022-10-02T02:57:12.258Z,7.03
2022-10-02T02:58:23.906Z,4.69
2022-10-02T02:59:29.474Z,3.50
2022-10-02T03:00:31.760Z,6.34
2022-10-02T03:01:34.015Z,3.31
2022-10-02T03:02:36.198Z,4.23
2022-10-02T03:03:38.622Z,4.31
2022-10-02T03:04:40.667Z,5.22
2022-10-02T03:05:46.441Z,4.13
2022-10-02T03:06:52.221Z,4.81
2022-10-02T03:08:03.965Z,4.68
2022-10-02T03:09:09.355Z,4.26
2022-10-02T03:10:18.204Z,3.76
2022-10-02T03:11:39.090Z,3.96
2022-10-02T03:12:53.616Z,4.83
2022-10-02T03:14:18.571Z,5.06
2022-10-02T03:15:39.608Z,4.00
2022-10-02T03:16:48.127Z,3.57
2022-10-02T03:18:26.188Z,3.93
2022-10-02T03:19:49.698Z,7.96
2022-10-02T03:20:58.321Z,3.76
2022-10-02T03:23:54.050Z,4.82
2022-10-02T03:24:59.793Z,3.36
2022-10-02T03:26:05.580Z,3.89
2022-10-02T03:27:27.196Z,4.51
2022-10-02T03:28:54.988Z,5.06
2022-10-02T03:29:50.484Z,3.66
2022-10-02T03:30:54.777Z,5.33
2022-10-02T03:31:58.601Z,4.12
2022-10-02T03:33:02.340Z,3.65
2022-10-02T03:34:05.085Z,5.34
2022-10-02T03:35:10.971Z,3.60
2022-10-02T03:36:14.135Z,7.06
2022-10-02T03:37:17.490Z,3.46
2022-10-02T03:38:22.663Z,4.34
2022-10-02T03:39:26.155Z,3.17
2022-10-02T03:40:28.674Z,4.07
2022-10-02T03:41:30.570Z,3.43
2022-10-02T03:42:35.120Z,4.07
2022-10-02T03:43:38.058Z,4.43
2022-10-02T03:44:40.200Z,4.84
2022-10-02T03:45:57.524Z,5.02
2022-10-02T03:46:46.218Z,12.59
2022-10-02T03:47:48.286Z,5.51
2022-10-02T03:48:50.238Z,4.49
2022-10-02T03:49:52.421Z,5.36
2022-10-02T03:50:54.413Z,4.37
2022-10-02T03:51:56.392Z,3.70
2022-10-02T03:52:58.463Z,4.57
2022-10-02T03:54:00.448Z,7.33
2022-10-02T03:55:06.216Z,5.61
2022-10-02T03:56:38.894Z,3.55
2022-10-02T03:57:43.718Z,4.05
2022-10-02T03:58:49.437Z,5.99
2022-10-02T04:00:06.997Z,4.18
2022-10-02T04:01:19.077Z,7.67
2022-10-02T04:02:41.750Z,4.78
2022-10-02T04:06:14.348Z,5.97
2022-10-02T04:07:22.907Z,4.81
2022-10-02T04:08:49.573Z,5.59
2022-10-02T04:09:55.280Z,4.36
2022-10-02T04:12:23.975Z,9.49
2022-10-02T04:13:35.475Z,6.73
2022-10-02T04:14:47.221Z,4.69
2022-10-02T04:15:55.807Z,6.58
2022-10-02T04:17:13.700Z,3.71
2022-10-02T04:18:19.399Z,3.69
2022-10-02T04:19:42.939Z,4.67
2022-10-02T04:21:10.224Z,3.67
2022-10-02T04:22:37.128Z,4.81
2022-10-02T04:23:42.785Z,3.49
2022-10-02T04:24:54.817Z,5.95
2022-10-02T04:26:06.507Z,4.46
2022-10-02T04:27:21.151Z,3.86
2022-10-02T04:28:26.935Z,6.73
2022-10-02T04:29:32.761Z,6.35
2022-10-02T04:30:35.754Z,4.99
2022-10-02T04:31:37.882Z,4.61
2022-10-02T04:32:40.378Z,4.21
2022-10-02T04:33:42.405Z,8.42
2022-10-02T04:34:44.706Z,4.89
2022-10-02T04:36:05.391Z,5.50
2022-10-02T04:37:31.018Z,6.43
2022-10-02T04:38:53.861Z,5.58
2022-10-02T04:40:11.825Z,5.43
2022-10-02T04:41:26.748Z,8.14
2022-10-02T04:42:41.338Z,7.96
2022-10-02T04:43:50.190Z,6.68
2022-10-02T04:45:12.944Z,5.76
2022-10-02T04:46:39.635Z,4.90
2022-10-02T04:47:57.186Z,5.01
2022-10-02T04:49:21.762Z,5.79
2022-10-02T04:50:39.179Z,6.24
2022-10-02T04:52:01.924Z,6.23
2022-10-02T04:53:07.709Z,8.33
2022-10-02T04:54:39.523Z,5.81
2022-10-02T04:57:07.363Z,6.37
2022-10-02T04:58:21.933Z,6.99
2022-10-02T04:59:33.415Z,5.44
2022-10-02T05:00:59.183Z,6.89
2022-10-02T05:02:08.210Z,5.74
2022-10-02T05:03:19.857Z,6.09
2022-10-02T05:04:49.026Z,7.76
2022-10-02T05:06:00.823Z,12.73
2022-10-02T05:07:21.576Z,5.66
2022-10-02T05:08:27.327Z,8.18
2022-10-02T05:09:33.108Z,6.89
2022-10-02T05:10:45.221Z,11.01
2022-10-02T05:12:10.765Z,6.04
2022-10-02T05:13:38.114Z,7.22
2022-10-02T05:14:58.991Z,6.42
2022-10-02T05:16:29.373Z,8.16
2022-10-02T05:17:58.432Z,8.81
2022-10-02T05:19:29.822Z,8.04
2022-10-02T05:20:53.747Z,8.46
2022-10-02T05:22:05.612Z,6.07
2022-10-02T05:23:41.732Z,5.64
2022-10-02T05:25:04.395Z,5.44
2022-10-02T05:26:14.499Z,7.91
2022-10-02T05:27:26.214Z,10.19
2022-10-02T05:28:50.004Z,6.50
2022-10-02T05:30:04.704Z,9.43
2022-10-02T05:31:33.127Z,8.39
2022-10-02T05:32:57.164Z,6.48
2022-10-02T05:34:20.750Z,4.84
2022-10-02T05:35:29.050Z,8.84
2022-10-02T05:36:35.202Z,10.19
2022-10-02T05:37:43.840Z,7.79
2022-10-02T05:39:10.748Z,6.84
2022-10-02T05:40:31.959Z,8.14
2022-10-02T05:41:43.348Z,7.00
2022-10-02T05:42:55.098Z,9.41
2022-10-02T05:44:03.843Z,7.64
2022-10-02T05:45:26.442Z,7.01
2022-10-02T05:46:32.476Z,7.39
2022-10-02T05:47:41.350Z,6.89
2022-10-02T05:48:46.641Z,10.26
2022-10-02T05:49:55.117Z,6.97
2022-10-02T05:51:22.291Z,7.44
2022-10-02T05:54:54.224Z,6.44
2022-10-02T05:56:19.609Z,8.64
2022-10-02T05:57:25.286Z,6.91
2022-10-02T05:58:39.656Z,7.05
2022-10-02T06:00:03.475Z,7.63
2022-10-02T06:01:24.753Z,11.77
2022-10-02T06:02:41.486Z,6.98
2022-10-02T06:04:03.997Z,7.88
2022-10-02T06:05:18.559Z,7.13
2022-10-02T06:06:24.655Z,7.94
2022-10-02T06:07:28.305Z,5.75
2022-10-02T06:08:33.954Z,8.40
2022-10-02T06:09:42.584Z,9.15
2022-10-02T06:10:51.296Z,5.90
2022-10-02T06:12:05.842Z,7.09
2022-10-02T06:13:28.452Z,6.33
2022-10-02T06:14:37.069Z,6.22
2022-10-02T06:16:10.521Z,7.91
2022-10-02T06:17:25.426Z,8.91
2022-10-02T06:18:30.920Z,7.91
2022-10-02T06:19:52.113Z,7.70
2022-10-02T06:21:25.364Z,7.00
2022-10-02T06:22:31.087Z,8.54
2022-10-02T06:23:46.041Z,8.35
2022-10-02T06:25:06.455Z,6.06
2022-10-02T06:26:30.937Z,24.11
2022-10-02T06:27:45.701Z,9.08
2022-10-02T06:28:54.218Z,10.09
2022-10-02T06:32:20.179Z,6.75
2022-10-02T06:33:23.690Z,8.25
2022-10-02T06:34:25.991Z,9.50
2022-10-02T06:35:58.979Z,8.67
2022-10-02T06:37:17.240Z,11.44
2022-10-02T06:38:22.994Z,10.72
2022-10-02T06:39:45.561Z,15.99
2022-10-02T06:41:08.510Z,10.51
2022-10-02T06:42:30.894Z,8.01
2022-10-02T06:43:49.041Z,8.95
2022-10-02T06:45:07.023Z,9.20
2022-10-02T06:46:29.725Z,8.25
2022-10-02T06:47:44.601Z,8.43
2022-10-02T06:48:56.568Z,10.55
2022-10-02T06:50:07.985Z,9.65
2022-10-02T06:51:16.899Z,9.41
2022-10-02T06:52:37.920Z,9.69
2022-10-02T06:53:47.807Z,11.06
2022-10-02T06:55:02.569Z,9.40
2022-10-02T06:56:25.350Z,8.28
2022-10-02T06:57:33.838Z,9.64
2022-10-02T06:59:06.711Z,8.72
2022-10-02T07:00:12.468Z,9.45
2022-10-02T07:01:30.901Z,10.81
2022-10-02T07:02:39.755Z,9.36
2022-10-02T07:04:14.685Z,6.46
2022-10-02T07:05:53.831Z,7.61
2022-10-02T07:07:02.649Z,8.45
2022-10-02T07:08:14.023Z,9.45
2022-10-02T07:10:41.803Z,6.62
2022-10-02T07:11:56.344Z,9.94
2022-10-02T07:13:28.292Z,8.72
2022-10-02T07:14:49.419Z,8.68
2022-10-02T07:16:10.629Z,8.69
2022-10-02T07:17:28.681Z,7.84
2022-10-02T07:18:53.009Z,9.05
2022-10-02T07:20:21.718Z,6.87
2022-10-02T07:21:33.411Z,8.79
2022-10-02T07:22:51.569Z,11.03
2022-10-02T07:24:02.855Z,8.11
2022-10-02T07:26:30.536Z,9.15
2022-10-02T07:27:36.289Z,10.71
2022-10-02T07:28:54.265Z,9.93
2022-10-02T07:29:59.929Z,8.58
2022-10-02T07:31:08.933Z,8.92
2022-10-02T07:32:29.746Z,8.35
2022-10-02T07:33:59.515Z,8.24
2022-10-02T07:35:21.838Z,9.70
2022-10-02T07:36:58.541Z,9.57
2022-10-02T07:38:30.524Z,10.58
2022-10-02T07:40:05.357Z,8.80
2022-10-02T07:41:20.505Z,10.34
2022-10-02T07:42:41.165Z,12.89
2022-10-02T07:43:46.828Z,11.92
2022-10-02T07:45:29.313Z,13.31
2022-10-02T07:49:21.345Z,11.12
2022-10-02T07:51:00.911Z,12.72
2022-10-02T07:52:21.493Z,14.20
2022-10-02T07:53:30.254Z,13.14
2022-10-02T07:55:52.527Z,13.96
2022-10-02T07:56:58.459Z,12.22
2022-10-02T07:58:06.971Z,12.78
2022-10-02T07:59:12.767Z,14.86
2022-10-02T08:00:21.035Z,15.75
2022-10-02T08:01:26.415Z,12.98
2022-10-02T08:03:06.488Z,11.08
2022-10-02T08:04:15.212Z,15.01
2022-10-02T08:05:26.741Z,14.37
2022-10-02T08:06:31.179Z,13.16
2022-10-02T08:07:33.524Z,13.76
2022-10-02T08:08:45.172Z,12.41
2022-10-02T08:09:50.982Z,16.67
2022-10-02T08:10:57.199Z,12.31
2022-10-02T08:12:08.935Z,14.56
2022-10-02T08:13:17.654Z,16.43
2022-10-02T08:14:26.469Z,17.15
2022-10-02T08:15:32.182Z,14.53
2022-10-02T08:16:49.713Z,16.99
2022-10-02T08:17:58.711Z,14.20
2022-10-02T08:20:31.028Z,14.93
2022-10-02T08:21:36.732Z,14.98
2022-10-02T08:22:42.461Z,14.89
2022-10-02T08:23:48.125Z,12.30
2022-10-02T08:26:21.855Z,15.91
2022-10-02T08:27:30.320Z,15.37
2022-10-02T08:28:38.772Z,14.64
2022-10-02T08:29:53.043Z,15.45
2022-10-02T08:30:57.249Z,16.69
2022-10-02T08:31:59.365Z,15.48
2022-10-02T08:33:02.067Z,13.85
2022-10-02T08:34:17.210Z,17.56
2022-10-02T08:35:20.265Z,15.58
2022-10-02T08:36:35.595Z,15.20
2022-10-02T08:37:56.195Z,17.04
2022-10-02T08:39:11.267Z,14.41
2022-10-02T08:40:32.892Z,16.43
2022-10-02T08:41:41.968Z,14.79
2022-10-02T08:42:59.535Z,18.01
2022-10-02T08:44:05.301Z,15.65
2022-10-02T08:45:43.423Z,13.72
2022-10-02T08:48:20.931Z,14.49
2022-10-02T08:49:41.920Z,11.58
2022-10-02T08:50:59.994Z,14.25
2022-10-02T08:52:38.113Z,14.40
2022-10-02T08:53:52.867Z,12.68
2022-10-02T08:55:19.934Z,11.93
2022-10-02T08:56:34.945Z,12.88
2022-10-02T08:57:47.066Z,12.32
2022-10-02T08:59:07.712Z,10.15
2022-10-02T09:00:26.235Z,11.87
2022-10-02T09:01:54.170Z,10.84
2022-10-02T09:03:08.351Z,13.42
2022-10-02T09:04:40.137Z,10.22
2022-10-02T09:07:28.080Z,10.83
2022-10-02T09:08:50.266Z,9.66
2022-10-02T09:10:10.992Z,10.40
2022-10-02T09:11:48.795Z,8.54
2022-10-02T09:13:03.576Z,7.71
2022-10-02T09:14:29.556Z,7.03
2022-10-02T09:15:47.321Z,6.52
2022-10-02T09:17:22.042Z,5.89
2022-10-02T09:18:33.777Z,6.02
2022-10-02T09:19:45.113Z,6.17
2022-10-02T09:21:00.156Z,8.66
2022-10-02T09:22:24.170Z,8.81
2022-10-02T09:23:44.920Z,8.34
2022-10-02T09:25:02.473Z,7.43
2022-10-02T09:26:11.593Z,5.63
2022-10-02T09:27:37.209Z,8.26
2022-10-02T09:28:48.718Z,5.36
2022-10-02T09:30:15.997Z,5.43
2022-10-02T09:31:21.676Z,6.36
2022-10-02T09:33:01.187Z,3.84
2022-10-02T09:34:30.205Z,3.86
2022-10-02T09:35:41.858Z,5.55
2022-10-02T09:36:47.740Z,3.71
2022-10-02T09:38:08.883Z,5.30
2022-10-02T09:39:31.491Z,3.66
2022-10-02T09:41:00.326Z,6.26
2022-10-02T09:42:30.151Z,4.13
2022-10-02T09:43:53.051Z,4.14
2022-10-02T09:45:22.977Z,4.51
2022-10-02T09:46:49.926Z,4.69
2022-10-02T09:48:08.096Z,4.47
2022-10-02T09:51:06.330Z,4.20
2022-10-02T09:52:42.563Z,4.10
2022-10-02T09:53:48.405Z,3.43
2022-10-02T09:54:54.086Z,4.29
2022-10-02T09:56:05.789Z,5.09
2022-10-02T09:57:17.374Z,4.04
2022-10-02T09:58:46.156Z,3.38
2022-10-02T10:00:03.977Z,3.80
2022-10-02T10:01:22.138Z,6.01
2022-10-02T10:02:37.080Z,6.80
2022-10-02T10:03:45.679Z,3.28
2022-10-02T10:05:07.970Z,3.73
2022-10-02T10:06:35.583Z,5.38
2022-10-02T10:08:00.935Z,2.79
2022-10-02T10:09:09.649Z,2.44
2022-10-02T10:10:30.788Z,3.93
2022-10-02T10:11:53.529Z,2.91
2022-10-02T10:13:08.168Z,4.03
2022-10-02T10:14:34.125Z,2.89
2022-10-02T10:16:14.887Z,3.21
2022-10-02T10:17:23.358Z,3.88
2022-10-02T10:18:53.526Z,7.26
2022-10-02T10:20:26.442Z,3.61
2022-10-02T10:21:41.606Z,3.21
2022-10-02T10:23:02.567Z,3.33
2022-10-02T10:24:31.256Z,2.43
2022-10-02T10:25:59.924Z,2.25
2022-10-02T10:27:11.612Z,2.39
2022-10-02T10:28:41.541Z,3.97
2022-10-02T10:29:47.381Z,2.48
2022-10-02T10:31:22.649Z,1.84
2022-10-02T10:32:44.022Z,2.07
2022-10-02T10:34:25.166Z,2.44
2022-10-02T10:35:40.308Z,2.23
2022-10-02T10:36:51.891Z,4.30
2022-10-02T10:38:12.894Z,3.14
2022-10-02T10:39:21.333Z,2.03
2022-10-02T10:40:47.132Z,2.46
2022-10-02T10:41:59.075Z,1.97
2022-10-02T10:43:35.198Z,1.49
2022-10-02T10:44:59.466Z,1.87
2022-10-02T10:46:23.334Z,1.82
2022-10-02T10:48:01.251Z,2.45
2022-10-02T10:49:33.029Z,2.17
2022-10-02T10:50:38.849Z,2.28
2022-10-02T10:51:47.558Z,2.12
2022-10-02T10:52:56.490Z,2.48
2022-10-02T10:54:37.533Z,2.18
2022-10-02T10:56:17.065Z,2.92
2022-10-02T10:57:53.449Z,2.19
2022-10-02T10:59:02.211Z,2.12
2022-10-02T11:00:25.114Z,1.98
2022-10-02T11:01:48.867Z,2.43
2022-10-02T11:03:23.906Z,3.38
2022-10-02T11:04:47.777Z,2.92
2022-10-02T11:06:24.190Z,6.03
2022-10-02T11:08:03.511Z,2.37
2022-10-02T11:09:30.534Z,2.29
2022-10-02T11:10:39.242Z,3.13
2022-10-02T11:13:21.299Z,1.77
2022-10-02T11:15:00.818Z,4.66
2022-10-02T11:16:18.438Z,3.37
2022-10-02T11:19:08.716Z,3.36
2022-10-02T11:20:29.733Z,2.66
2022-10-02T11:21:44.049Z,2.18
2022-10-02T11:23:20.215Z,1.91
2022-10-02T11:24:41.265Z,2.71
2022-10-02T11:26:05.478Z,1.74
2022-10-02T11:27:14.174Z,1.76
2022-10-02T11:28:34.977Z,1.16
2022-10-02T11:30:00.749Z,2.67
2022-10-02T11:31:28.038Z,2.62
2022-10-02T11:32:43.114Z,2.43
2022-10-02T11:33:54.426Z,2.52
2022-10-02T11:35:12.354Z,0.99
2022-10-02T11:36:24.423Z,1.98
2022-10-02T11:37:47.181Z,2.68
2022-10-02T11:38:55.621Z,1.86
2022-10-02T11:40:18.120Z,1.47
2022-10-02T11:41:44.932Z,1.24
2022-10-02T11:42:56.232Z,1.74
2022-10-02T11:45:20.841Z,1.46
2022-10-02T11:46:35.743Z,1.86
2022-10-02T11:47:47.618Z,1.97
2022-10-02T11:48:56.423Z,3.58
2022-10-02T11:50:20.314Z,2.61
2022-10-02T11:51:26.022Z,1.26
2022-10-02T11:52:52.483Z,3.39
2022-10-02T11:54:04.304Z,1.58
2022-10-02T11:55:29.592Z,2.76
2022-10-02T11:56:35.420Z,2.14
2022-10-02T11:57:50.357Z,1.64
2022-10-02T11:58:58.855Z,2.91
2022-10-02T12:00:14.028Z,1.23
2022-10-02T12:01:35.282Z,2.58
2022-10-02T12:03:16.687Z,2.21
2022-10-02T12:04:49.360Z,2.27
2022-10-02T12:06:01.273Z,2.12
2022-10-02T12:07:21.626Z,1.47
2022-10-02T12:08:46.962Z,1.74
2022-10-02T12:10:20.438Z,1.86
2022-10-02T12:11:44.629Z,3.22
2022-10-02T12:14:29.285Z,6.52
2022-10-02T12:15:35.059Z,1.21
2022-10-02T12:16:46.953Z,1.72
2022-10-02T12:18:25.240Z,1.04
2022-10-02T12:19:49.210Z,1.10
2022-10-02T12:21:06.969Z,1.89
2022-10-02T12:22:24.779Z,1.58
2022-10-02T12:23:42.842Z,1.49
2022-10-02T12:24:57.602Z,1.59
2022-10-02T12:26:35.155Z,2.09
2022-10-02T12:27:43.883Z,1.78
2022-10-02T12:29:08.190Z,2.29
2022-10-02T12:30:16.823Z,1.27
2022-10-02T12:31:28.733Z,1.76
2022-10-02T12:32:46.483Z,1.45
2022-10-02T12:33:56.444Z,2.09
2022-10-02T12:35:06.106Z,2.82
2022-10-02T12:36:14.957Z,1.74
2022-10-02T12:37:30.092Z,1.70
2022-10-02T12:38:44.992Z,2.86
2022-10-02T12:40:09.185Z,2.45
2022-10-02T12:41:33.315Z,1.47
2022-10-02T12:42:42.508Z,1.30
2022-10-02T12:44:06.629Z,0.88
2022-10-02T12:45:24.118Z,1.71
2022-10-02T12:46:30.041Z,0.72
2022-10-02T12:47:41.831Z,1.29
2022-10-02T12:49:10.567Z,0.98
2022-10-02T12:50:22.118Z,1.74
2022-10-02T12:52:48.579Z,1.95
2022-10-02T12:54:17.463Z,1.22
2022-10-02T12:55:59.657Z,2.84
2022-10-02T12:57:05.476Z,1.56
2022-10-02T12:58:16.996Z,4.29
2022-10-02T12:59:50.218Z,1.09
2022-10-02T13:01:11.272Z,0.62
2022-10-02T13:02:56.160Z,1.23
2022-10-02T13:03:42.921Z,1.03
2022-10-02T13:05:08.953Z,1.33
2022-10-02T13:06:44.327Z,0.92
2022-10-02T13:08:21.545Z,1.41
2022-10-02T13:09:33.553Z,3.84
2022-10-02T13:10:39.443Z,1.19
2022-10-02T13:11:55.592Z,0.87
2022-10-02T13:13:07.671Z,3.44
2022-10-02T13:14:16.289Z,1.41
2022-10-02T13:15:31.261Z,3.01
2022-10-02T13:16:46.160Z,1.23
2022-10-02T13:17:54.955Z,4.51
2022-10-02T13:19:09.541Z,1.62
2022-10-02T13:20:21.840Z,0.58
2022-10-02T13:21:33.606Z,1.79
2022-10-02T13:22:48.927Z,0.76
2022-10-02T13:23:54.641Z,0.94
2022-10-02T13:25:21.777Z,1.02
2022-10-02T13:28:16.044Z,0.93
2022-10-02T13:29:36.431Z,2.39
2022-10-02T13:30:51.560Z,0.98
2022-10-02T13:32:12.260Z,1.82
2022-10-02T13:33:21.214Z,1.02
2022-10-02T13:34:38.440Z,1.33
2022-10-02T13:37:27.917Z,1.11
2022-10-02T13:38:56.571Z,1.33
2022-10-02T13:40:18.986Z,1.76
2022-10-02T13:41:30.239Z,2.16
2022-10-02T13:42:45.153Z,1.29
2022-10-02T13:43:52.514Z,1.78
2022-10-02T13:45:19.354Z,1.54
2022-10-02T13:46:39.825Z,1.93
2022-10-02T13:48:03.853Z,1.08
2022-10-02T13:49:27.629Z,1.84
2022-10-02T13:50:45.902Z,2.46
2022-10-02T13:51:54.458Z,0.78
2022-10-02T13:53:12.075Z,0.42
2022-10-02T13:54:32.725Z,0.64
2022-10-02T13:55:47.035Z,0.36
2022-10-02T13:57:01.945Z,2.37
2022-10-02T13:58:16.973Z,1.53
2022-10-02T13:59:25.637Z,1.23
2022-10-02T14:00:44.131Z,3.01
2022-10-02T14:01:53.070Z,0.39
2022-10-02T14:03:04.722Z,0.78
2022-10-02T14:04:25.508Z,0.83
2022-10-02T14:05:54.460Z,0.98
2022-10-02T14:07:04.215Z,0.36
2022-10-02T14:08:24.984Z,0.38
2022-10-02T14:09:30.689Z,2.30
2022-10-02T14:10:48.913Z,2.10
2022-10-02T14:12:06.525Z,3.30
2022-10-02T14:13:24.058Z,3.34
2022-10-02T14:14:29.784Z,0.89
2022-10-02T14:15:50.875Z,0.89
2022-10-02T14:17:13.518Z,1.69
2022-10-02T14:18:25.480Z,0.95
2022-10-02T14:19:39.944Z,2.36
2022-10-02T14:21:00.381Z,2.46
2022-10-02T14:22:12.395Z,1.05
2022-10-02T14:23:36.567Z,0.85
2022-10-02T14:26:15.657Z,0.88
2022-10-02T14:27:39.328Z,0.48
2022-10-02T14:28:45.081Z,0.27
2022-10-02T14:29:53.391Z,0.61
2022-10-02T14:31:20.502Z,0.31
2022-10-02T14:32:55.625Z,0.37
2022-10-02T14:34:18.278Z,0.43
2022-10-02T14:35:24.008Z,0.34
2022-10-02T14:36:35.686Z,0.56
2022-10-02T14:37:50.477Z,0.31
2022-10-02T14:38:56.175Z,2.01
2022-10-02T14:40:01.923Z,1.58
2022-10-02T14:41:45.078Z,1.32
2022-10-02T14:43:02.551Z,0.48
2022-10-02T14:44:08.239Z,0.28
2022-10-02T14:45:47.830Z,1.15
2022-10-02T14:46:56.731Z,3.27
2022-10-02T14:48:14.817Z,1.29
2022-10-02T14:50:56.882Z,0.49
2022-10-02T14:52:25.337Z,2.13
2022-10-02T14:54:06.365Z,0.68
2022-10-02T14:55:36.157Z,0.31
2022-10-02T14:57:00.233Z,0.89
2022-10-02T14:58:08.891Z,1.34
2022-10-02T15:00:46.436Z,0.64
2022-10-02T15:02:07.717Z,0.33
2022-10-02T15:03:19.159Z,0.95
2022-10-02T15:05:59.496Z,1.64
2022-10-02T15:07:08.360Z,1.91
2022-10-02T15:08:17.269Z,0.99
2022-10-02T15:09:22.974Z,0.91
2022-10-02T15:10:29.663Z,0.69
2022-10-02T15:11:38.736Z,0.74
2022-10-02T15:13:05.044Z,0.38
2022-10-02T15:14:18.922Z,0.88
2022-10-02T15:15:42.523Z,0.64
2022-10-02T15:16:52.723Z,0.87
2022-10-02T15:18:15.124Z,0.21
2022-10-02T15:19:24.033Z,0.77
2022-10-02T15:20:39.073Z,1.39
2022-10-02T15:21:59.631Z,0.25
2022-10-02T15:23:05.313Z,1.35
2022-10-02T15:24:14.176Z,0.38
2022-10-02T15:25:36.698Z,1.20
2022-10-02T15:26:51.437Z,0.28
2022-10-02T15:28:35.266Z,0.68
2022-10-02T15:29:43.428Z,1.24
2022-10-02T15:31:01.312Z,1.68
2022-10-02T15:32:22.306Z,0.98
2022-10-02T15:33:33.880Z,0.62
2022-10-02T15:36:10.474Z,1.37
2022-10-02T15:37:19.259Z,0.67
2022-10-02T15:38:41.487Z,0.55
2022-10-02T15:39:55.747Z,0.81
2022-10-02T15:41:01.685Z,0.90
2022-10-02T15:42:06.644Z,0.81
2022-10-02T15:43:18.193Z,1.31
2022-10-02T15:44:50.178Z,1.12
2022-10-02T15:45:59.158Z,1.03
2022-10-02T15:47:31.152Z,1.24
2022-10-02T15:50:19.923Z,2.51
2022-10-02T15:51:42.458Z,0.67
2022-10-02T15:53:06.825Z,1.23
2022-10-02T15:54:18.640Z,0.73
2022-10-02T15:55:40.003Z,1.01
2022-10-02T15:57:07.988Z,1.87
2022-10-02T15:58:36.786Z,0.86
2022-10-02T16:00:04.016Z,5.07
2022-10-02T16:02:46.990Z,1.38
2022-10-02T16:03:55.527Z,0.86
2022-10-02T16:05:13.651Z,4.72
2022-10-02T16:06:43.836Z,1.37
2022-10-02T16:07:58.081Z,1.39
2022-10-02T16:09:23.726Z,1.12
2022-10-02T16:10:41.413Z,1.62
2022-10-02T16:12:02.531Z,2.17
2022-10-02T16:13:25.075Z,0.98
2022-10-02T16:14:40.043Z,0.58
2022-10-02T16:16:06.710Z,3.99
2022-10-02T16:17:15.763Z,0.58
2022-10-02T16:18:46.055Z,1.21
2022-10-02T16:20:14.631Z,1.27
2022-10-02T16:21:41.227Z,1.56
2022-10-02T16:23:13.166Z,1.54
2022-10-02T16:24:43.469Z,0.81
2022-10-02T16:25:55.312Z,1.14
2022-10-02T16:27:13.374Z,3.52
2022-10-02T16:28:31.353Z,2.92
2022-10-02T16:30:03.084Z,1.10
2022-10-02T16:31:21.178Z,1.44
2022-10-02T16:32:39.268Z,0.97
2022-10-02T16:34:11.182Z,3.64
2022-10-02T16:35:26.050Z,1.57
2022-10-02T16:36:34.980Z,2.31
2022-10-02T16:40:30.773Z,1.60
2022-10-02T16:41:42.828Z,2.18
2022-10-02T16:42:54.121Z,2.09
2022-10-02T16:44:08.828Z,2.88
2022-10-02T16:45:17.037Z,1.51
2022-10-02T16:46:29.145Z,3.13
2022-10-02T16:47:37.857Z,1.48
2022-10-02T16:48:55.101Z,1.54
2022-10-02T16:50:03.857Z,2.37
2022-10-02T16:51:18.389Z,8.18
2022-10-02T16:52:45.022Z,3.68
2022-10-02T16:53:50.701Z,2.14
2022-10-02T16:55:27.245Z,2.31
2022-10-02T16:56:33.022Z,1.49
2022-10-02T16:57:44.506Z,2.78
2022-10-02T16:59:00.518Z,2.92
2022-10-02T17:00:03.476Z,2.11
2022-10-02T17:01:24.231Z,1.41
2022-10-02T17:02:49.931Z,1.48
2022-10-02T17:04:10.978Z,1.13
2022-10-02T17:05:36.704Z,1.07
2022-10-02T17:06:48.608Z,1.26
2022-10-02T17:07:54.291Z,1.53
2022-10-02T17:09:15.500Z,1.26
2022-10-02T17:10:30.488Z,1.58
2022-10-02T17:11:36.311Z,2.03
2022-10-02T17:12:45.053Z,0.99
2022-10-02T17:13:50.860Z,1.53
2022-10-02T17:15:05.897Z,2.73
2022-10-02T17:16:29.605Z,4.98
2022-10-02T17:17:44.761Z,4.16
2022-10-02T17:18:56.504Z,1.85
2022-10-02T17:20:05.411Z,1.09
2022-10-02T17:21:17.264Z,1.61
2022-10-02T17:24:13.228Z,1.25
2022-10-02T17:25:28.272Z,1.04
2022-10-02T17:26:46.074Z,2.34
2022-10-02T17:27:54.556Z,1.58
2022-10-02T17:29:03.174Z,1.33
2022-10-02T17:30:21.171Z,1.18
2022-10-02T17:31:45.454Z,0.99
2022-10-02T17:32:50.864Z,1.15
2022-10-02T17:34:17.980Z,1.07
2022-10-02T17:35:32.984Z,2.96
2022-10-02T17:36:39.243Z,1.20
2022-10-02T17:39:47.588Z,1.02
2022-10-02T17:41:10.258Z,1.30
2022-10-02T17:42:27.823Z,1.43
2022-10-02T17:43:49.020Z,1.33
2022-10-02T17:45:14.701Z,1.89
2022-10-02T17:46:23.422Z,1.60
2022-10-02T17:47:47.451Z,1.77
2022-10-02T17:49:01.950Z,0.74